createdAt,value
2023-04-10T00:01:54.411Z,7.08
2023-04-10T00:05:06.803Z,7.02
2023-04-10T00:08:19.060Z,7.01
2023-04-10T00:11:32.062Z,6.98
2023-04-10T00:14:44.244Z,6.93
2023-04-10T00:17:56.246Z,6.91
2023-04-10T00:21:11.099Z,6.87
2023-04-10T00:24:23.097Z,6.88
2023-04-10T00:27:35.146Z,6.83
2023-04-10T00:30:47.366Z,6.85
2023-04-10T00:33:59.484Z,6.81
2023-04-10T00:37:11.931Z,6.80
2023-04-10T00:40:24.141Z,6.75
2023-04-10T00:43:37.118Z,6.73
2023-04-10T00:46:49.534Z,6.69
2023-04-10T00:50:02.027Z,6.73
2023-04-10T00:53:14.322Z,6.74
2023-04-10T00:56:29.779Z,6.72
2023-04-10T00:59:42.400Z,6.73
2023-04-10T01:02:56.185Z,6.75
2023-04-10T01:06:16.475Z,6.77
2023-04-10T01:09:43.910Z,6.76
2023-04-10T01:13:06.634Z,6.78
2023-04-10T01:16:23.020Z,6.82
2023-04-10T01:19:47.030Z,6.80
2023-04-10T01:23:18.030Z,6.82
2023-04-10T01:26:44.577Z,6.84
2023-04-10T01:30:01.147Z,6.85
2023-04-10T01:33:17.798Z,6.84
2023-04-10T01:36:35.047Z,6.84
2023-04-10T01:39:48.797Z,6.84
2023-04-10T01:43:05.355Z,6.83
2023-04-10T01:46:20.240Z,6.87
2023-04-10T01:49:34.812Z,6.89
2023-04-10T01:52:50.027Z,6.90
2023-04-10T01:56:07.344Z,6.89
2023-04-10T01:59:21.883Z,6.87
2023-04-10T02:02:38.316Z,6.89
2023-04-10T02:05:57.082Z,6.92
2023-04-10T02:09:15.540Z,6.96
2023-04-10T02:12:32.981Z,6.97
2023-04-10T02:15:48.793Z,6.97
2023-04-10T02:19:03.780Z,6.96
2023-04-10T02:22:16.374Z,6.96
2023-04-10T02:25:28.437Z,6.94
2023-04-10T02:28:40.794Z,6.99
2023-04-10T02:31:53.586Z,6.95
2023-04-10T02:35:06.259Z,6.91
2023-04-10T02:38:18.509Z,6.94
2023-04-10T02:41:30.666Z,6.94
2023-04-10T02:44:43.672Z,6.92
2023-04-10T02:47:56.582Z,6.96
2023-04-10T02:51:09.144Z,6.99
2023-04-10T02:54:22.816Z,6.97
2023-04-10T02:57:34.999Z,6.99
2023-04-10T03:00:47.373Z,7.02
2023-04-10T03:04:03.199Z,7.05
2023-04-10T03:07:17.749Z,7.03
2023-04-10T03:10:30.030Z,7.04
2023-04-10T03:13:42.212Z,7.05
2023-04-10T03:16:54.664Z,7.07
2023-04-10T03:20:07.182Z,7.03
2023-04-10T03:23:20.121Z,7.04
2023-04-10T03:26:32.368Z,7.02
2023-04-10T03:29:45.035Z,7.02
2023-04-10T03:32:57.463Z,7.01
2023-04-10T03:36:10.520Z,7.04
2023-04-10T03:39:23.066Z,7.08
2023-04-10T03:42:35.257Z,7.09
2023-04-10T03:45:48.179Z,7.10
2023-04-10T03:49:01.096Z,7.11
2023-04-10T03:52:14.580Z,7.10
2023-04-10T03:55:27.199Z,7.11
2023-04-10T03:58:40.425Z,7.11
2023-04-10T04:01:53.517Z,7.12
2023-04-10T04:05:06.142Z,7.12
2023-04-10T04:08:28.971Z,7.13
2023-04-10T04:11:46.241Z,7.14
2023-04-10T04:15:17.335Z,7.18
2023-04-10T04:18:34.100Z,7.21
2023-04-10T04:22:04.731Z,7.20
2023-04-10T04:25:19.964Z,7.19
2023-04-10T04:28:39.757Z,7.16
2023-04-10T04:32:10.933Z,7.20
2023-04-10T04:35:41.519Z,7.20
2023-04-10T04:39:04.546Z,7.18
2023-04-10T04:42:18.504Z,7.18
2023-04-10T04:45:32.805Z,7.17
2023-04-10T04:48:53.198Z,7.19
2023-04-10T04:52:09.424Z,7.22
2023-04-10T04:55:23.688Z,7.24
2023-04-10T04:58:40.612Z,7.24
2023-04-10T05:01:55.984Z,7.21
2023-04-10T05:05:11.596Z,7.23
2023-04-10T05:08:28.711Z,7.28
2023-04-10T05:11:42.982Z,7.25
2023-04-10T05:14:59.888Z,7.27
2023-04-10T05:18:14.383Z,7.30
2023-04-10T05:21:28.802Z,7.31
2023-04-10T05:24:48.964Z,7.33
2023-04-10T05:28:03.763Z,7.33
2023-04-10T05:31:34.471Z,7.38
2023-04-10T05:34:57.373Z,7.33
2023-04-10T05:38:17.867Z,7.29
2023-04-10T05:41:37.806Z,7.26
2023-04-10T05:45:04.256Z,7.26
2023-04-10T05:48:36.826Z,7.29
2023-04-10T05:52:02.997Z,7.36
2023-04-10T05:55:17.941Z,7.35
2023-04-10T05:58:41.032Z,7.40
2023-04-10T06:02:04.343Z,7.45
2023-04-10T06:05:17.050Z,7.40
2023-04-10T06:08:30.152Z,7.40
2023-04-10T06:11:42.426Z,7.47
2023-04-10T06:14:55.368Z,7.46
2023-04-10T06:18:07.810Z,7.52
2023-04-10T06:21:21.775Z,7.52
2023-04-10T06:24:33.799Z,7.53
2023-04-10T06:27:46.817Z,7.53
2023-04-10T06:30:59.175Z,7.65
2023-04-10T06:34:13.142Z,7.64
2023-04-10T06:37:34.068Z,7.63
2023-04-10T06:40:48.882Z,7.66
2023-04-10T06:44:02.606Z,7.74
2023-04-10T06:47:17.318Z,7.74
2023-04-10T06:50:30.234Z,7.77
2023-04-10T06:53:43.643Z,7.81
2023-04-10T06:56:57.700Z,7.85
2023-04-10T07:00:10.958Z,7.92
2023-04-10T07:03:23.040Z,7.94
2023-04-10T07:06:36.287Z,7.94
2023-04-10T07:09:48.556Z,7.97
2023-04-10T07:13:01.578Z,7.92
2023-04-10T07:16:17.252Z,7.86
2023-04-10T07:19:30.309Z,7.91
2023-04-10T07:22:42.607Z,7.92
2023-04-10T07:25:54.892Z,7.91
2023-04-10T07:29:07.131Z,7.93
2023-04-10T07:32:19.465Z,7.94
2023-04-10T07:35:32.260Z,7.93
2023-04-10T07:38:45.643Z,7.88
2023-04-10T07:41:59.254Z,7.84
2023-04-10T07:45:13.636Z,7.81
2023-04-10T07:48:26.200Z,7.88
2023-04-10T07:51:38.988Z,7.83
2023-04-10T07:54:52.079Z,7.87
2023-04-10T07:58:05.048Z,7.86
2023-04-10T08:01:17.842Z,7.85
2023-04-10T08:04:30.658Z,7.97
2023-04-10T08:07:43.085Z,8.07
2023-04-10T08:10:55.984Z,8.11
2023-04-10T08:14:10.365Z,8.15
2023-04-10T08:17:22.510Z,8.18
2023-04-10T08:20:37.284Z,8.29
2023-04-10T08:23:51.589Z,8.34
2023-04-10T08:27:03.669Z,8.26
2023-04-10T08:30:18.040Z,8.32
2023-04-10T08:33:30.276Z,8.34
2023-04-10T08:36:42.591Z,8.56
2023-04-10T08:39:54.972Z,8.75
2023-04-10T08:43:07.692Z,8.61
2023-04-10T08:46:20.354Z,8.51
2023-04-10T08:49:39.838Z,8.45
2023-04-10T08:52:56.335Z,8.54
2023-04-10T08:56:12.100Z,8.54
2023-04-10T08:59:25.568Z,8.55
2023-04-10T09:02:40.038Z,8.58
2023-04-10T09:05:52.636Z,8.68
2023-04-10T09:09:04.760Z,8.81
2023-04-10T09:12:18.458Z,8.85
2023-04-10T09:15:31.004Z,9.01
2023-04-10T09:18:55.942Z,8.96
2023-04-10T09:22:08.023Z,9.16
2023-04-10T09:25:36.500Z,9.20
2023-04-10T09:29:06.828Z,9.43
2023-04-10T09:32:21.264Z,9.30
2023-04-10T09:35:43.277Z,9.33
2023-04-10T09:39:00.992Z,9.39
2023-04-10T09:42:14.557Z,9.38
2023-04-10T09:45:27.439Z,9.53
2023-04-10T09:48:39.890Z,9.56
2023-04-10T09:51:52.478Z,9.43
2023-04-10T09:55:07.855Z,9.50
2023-04-10T09:58:21.924Z,9.54
2023-04-10T10:01:35.241Z,9.52
2023-04-10T10:04:51.650Z,9.75
2023-04-10T10:08:05.299Z,9.85
2023-04-10T10:11:19.933Z,9.95
2023-04-10T10:14:37.144Z,10.00
2023-04-10T10:17:58.244Z,9.97
2023-04-10T10:21:11.617Z,9.88
2023-04-10T10:24:26.402Z,9.93
2023-04-10T10:27:42.388Z,9.91
2023-04-10T10:30:55.084Z,10.01
2023-04-10T10:34:09.942Z,10.21
2023-04-10T10:37:23.678Z,10.23
2023-04-10T10:40:43.569Z,10.44
2023-04-10T10:44:04.012Z,10.59
2023-04-10T10:47:24.447Z,10.86
2023-04-10T10:50:59.572Z,11.11
2023-04-10T10:54:27.486Z,11.51
2023-04-10T10:57:57.502Z,11.62
2023-04-10T11:01:26.665Z,11.62
2023-04-10T11:04:55.631Z,11.43
2023-04-10T11:08:17.336Z,11.27
2023-04-10T11:11:30.904Z,11.31
2023-04-10T11:14:44.335Z,11.50
2023-04-10T11:17:59.149Z,12.23
2023-04-10T11:21:19.332Z,12.89
2023-04-10T11:24:33.207Z,13.33
2023-04-10T11:27:53.538Z,13.47
2023-04-10T11:31:20.206Z,13.67
2023-04-10T11:34:33.425Z,13.81
2023-04-10T11:37:45.825Z,13.81
2023-04-10T11:41:10.654Z,13.74
2023-04-10T11:44:26.677Z,13.77
2023-04-10T11:47:39.272Z,13.55
2023-04-10T11:50:51.592Z,13.82
2023-04-10T11:54:17.630Z,13.79
2023-04-10T11:57:34.172Z,13.92
2023-04-10T12:00:46.190Z,14.00
2023-04-10T12:03:58.668Z,14.22
2023-04-10T12:07:11.334Z,14.26
2023-04-10T12:10:23.777Z,13.92
2023-04-10T12:13:37.945Z,14.22
2023-04-10T12:16:50.921Z,14.43
2023-04-10T12:20:04.288Z,14.02
2023-04-10T12:23:17.251Z,13.90
2023-04-10T12:26:29.659Z,14.27
2023-04-10T12:29:41.994Z,14.44
2023-04-10T12:33:02.406Z,14.71
2023-04-10T12:36:29.421Z,14.77
2023-04-10T12:39:42.044Z,14.33
2023-04-10T12:42:54.366Z,14.99
2023-04-10T12:46:07.825Z,14.75
2023-04-10T12:49:21.964Z,14.72
2023-04-10T12:52:34.089Z,14.41
2023-04-10T12:55:46.499Z,13.59
2023-04-10T12:59:13.613Z,13.10
2023-04-10T13:02:26.769Z,13.26
2023-04-10T13:05:39.154Z,13.39
2023-04-10T13:08:53.254Z,13.39
2023-04-10T13:12:07.313Z,13.29
2023-04-10T13:15:20.333Z,13.69
2023-04-10T13:18:32.497Z,14.17
2023-04-10T13:21:44.703Z,14.63
2023-04-10T13:24:57.007Z,15.09
2023-04-10T13:28:11.295Z,14.50
2023-04-10T13:31:23.792Z,14.15
2023-04-10T13:34:36.197Z,14.33
2023-04-10T13:37:51.982Z,14.43
2023-04-10T13:41:04.073Z,14.73
2023-04-10T13:44:16.222Z,15.10
2023-04-10T13:47:29.338Z,14.86
2023-04-10T13:50:41.616Z,14.91
2023-04-10T13:53:53.924Z,15.36
2023-04-10T13:57:06.242Z,15.10
2023-04-10T14:00:21.010Z,14.93
2023-04-10T14:03:33.519Z,14.81
2023-04-10T14:06:46.399Z,14.39
2023-04-10T14:09:58.488Z,14.06
2023-04-10T14:13:11.873Z,14.12
2023-04-10T14:16:24.113Z,14.23
2023-04-10T14:19:38.153Z,14.21
2023-04-10T14:22:50.404Z,14.40
2023-04-10T14:26:02.897Z,14.70
2023-04-10T14:29:18.120Z,14.92
2023-04-10T14:32:30.010Z,14.88
2023-04-10T14:35:42.369Z,14.76
2023-04-10T14:38:54.658Z,14.73
2023-04-10T14:42:07.119Z,14.59
2023-04-10T14:45:19.985Z,14.40
2023-04-10T14:48:32.194Z,14.32
2023-04-10T14:51:45.645Z,14.31
2023-04-10T14:54:57.841Z,14.43
2023-04-10T14:58:11.714Z,14.26
2023-04-10T15:01:24.453Z,14.29
2023-04-10T15:04:36.729Z,14.26
2023-04-10T15:07:52.024Z,14.27
2023-04-10T15:11:05.469Z,13.87
2023-04-10T15:14:17.633Z,13.49
2023-04-10T15:17:31.015Z,13.13
2023-04-10T15:20:43.370Z,13.13
2023-04-10T15:23:55.884Z,12.96
2023-04-10T15:27:08.399Z,12.72
2023-04-10T15:30:21.515Z,12.62
2023-04-10T15:33:35.793Z,12.41
2023-04-10T15:36:47.882Z,12.39
2023-04-10T15:40:00.076Z,12.39
2023-04-10T15:43:12.346Z,12.37
2023-04-10T15:46:27.383Z,12.24
2023-04-10T15:49:39.888Z,12.18
2023-04-10T15:52:52.192Z,12.26
2023-04-10T15:56:04.690Z,12.17
2023-04-10T15:59:17.024Z,12.14
2023-04-10T16:02:29.393Z,12.10
2023-04-10T16:05:42.053Z,12.00
2023-04-10T16:08:57.018Z,11.99
2023-04-10T16:12:09.822Z,11.96
2023-04-10T16:15:23.718Z,11.93
2023-04-10T16:18:36.196Z,11.93
2023-04-10T16:21:48.400Z,11.96
2023-04-10T16:28:16.501Z,11.94
2023-04-10T16:31:28.738Z,11.89
2023-04-10T16:34:41.164Z,11.90
2023-04-10T16:37:54.095Z,11.90
2023-04-10T16:41:10.261Z,11.82
2023-04-10T16:44:22.468Z,11.72
2023-04-10T16:47:34.880Z,11.63
2023-04-10T16:50:47.183Z,11.59
2023-04-10T16:53:59.728Z,11.49
2023-04-10T16:57:12.305Z,11.41
2023-04-10T17:00:26.042Z,11.29
2023-04-10T17:03:39.697Z,11.21
2023-04-10T17:06:51.888Z,11.19
2023-04-10T17:10:04.205Z,11.15
2023-04-10T17:13:17.374Z,11.17
2023-04-10T17:16:30.701Z,11.16
2023-04-10T17:19:43.101Z,11.12
2023-04-10T17:22:55.502Z,11.10
2023-04-10T17:26:08.027Z,11.05
2023-04-10T17:29:20.611Z,11.02
2023-04-10T17:32:32.948Z,11.06
2023-04-10T17:35:46.302Z,11.04
2023-04-10T17:38:59.758Z,11.00
2023-04-10T17:42:13.955Z,11.01
2023-04-10T17:45:26.469Z,10.58
2023-04-10T17:48:39.374Z,9.81
2023-04-10T17:51:51.614Z,8.78
2023-04-10T17:55:05.459Z,8.46
2023-04-10T17:58:17.664Z,8.36
2023-04-10T18:01:31.793Z,8.29
2023-04-10T18:04:44.285Z,8.28
2023-04-10T18:07:56.535Z,8.28
2023-04-10T18:11:09.459Z,8.30
2023-04-10T18:14:21.810Z,8.25
2023-04-10T18:17:34.669Z,8.27
2023-04-10T18:20:47.051Z,8.30
2023-04-10T18:24:00.348Z,8.40
2023-04-10T18:27:12.531Z,8.50
2023-04-10T18:30:25.788Z,8.51
2023-04-10T18:33:43.435Z,8.34
2023-04-10T18:36:56.001Z,8.13
2023-04-10T18:40:16.413Z,8.22
2023-04-10T18:43:25.094Z,8.28
2023-04-10T18:46:37.638Z,8.28
2023-04-10T18:49:50.178Z,8.23
2023-04-10T18:53:02.597Z,8.23
2023-04-10T18:56:15.833Z,8.22
2023-04-10T18:59:28.042Z,8.08
2023-04-10T19:02:40.635Z,8.04
2023-04-10T19:05:52.987Z,8.03
2023-04-10T19:09:05.344Z,8.03
2023-04-10T19:12:17.721Z,8.04
2023-04-10T19:15:30.709Z,8.08
2023-04-10T19:18:43.244Z,8.10
2023-04-10T19:21:55.478Z,8.03
2023-04-10T19:25:07.632Z,7.99
2023-04-10T19:28:19.892Z,7.94
2023-04-10T19:31:32.301Z,7.87
2023-04-10T19:34:44.496Z,7.88
2023-04-10T19:37:56.710Z,7.88
2023-04-10T19:41:10.143Z,7.86
2023-04-10T19:44:22.302Z,7.87
2023-04-10T19:47:34.637Z,7.88
2023-04-10T19:50:46.864Z,7.87
2023-04-10T19:53:59.566Z,7.76
2023-04-10T19:57:11.933Z,7.69
2023-04-10T20:00:25.430Z,7.68
2023-04-10T20:03:38.841Z,7.65
2023-04-10T20:06:51.316Z,7.62
2023-04-10T20:10:03.527Z,7.67
2023-04-10T20:13:16.297Z,7.72
2023-04-10T20:16:28.520Z,7.78
2023-04-10T20:19:41.061Z,7.83
2023-04-10T20:22:53.260Z,7.64
2023-04-10T20:26:05.535Z,7.46
2023-04-10T20:29:17.686Z,7.46
2023-04-10T20:32:29.876Z,7.44
2023-04-10T20:35:42.171Z,7.30
2023-04-10T20:38:54.642Z,7.29
2023-04-10T20:42:06.947Z,7.27
2023-04-10T20:45:20.148Z,7.25
2023-04-10T20:48:32.285Z,7.19
2023-04-10T20:51:44.572Z,7.24
2023-04-10T20:54:56.696Z,7.21
2023-04-10T20:58:08.727Z,7.12
2023-04-10T21:01:20.885Z,6.99
2023-04-10T21:04:32.979Z,6.98
2023-04-10T21:07:46.003Z,6.89
2023-04-10T21:10:59.624Z,6.92
2023-04-10T21:14:11.844Z,6.90
2023-04-10T21:17:28.391Z,6.81
2023-04-10T21:20:40.697Z,6.72
2023-04-10T21:23:52.977Z,6.74
2023-04-10T21:27:05.183Z,6.66
2023-04-10T21:30:19.022Z,6.68
2023-04-10T21:33:33.187Z,6.61
2023-04-10T21:36:46.316Z,6.60
2023-04-10T21:39:58.398Z,6.54
2023-04-10T21:43:10.706Z,6.56
2023-04-10T21:46:23.070Z,6.60
2023-04-10T21:49:35.225Z,6.60
2023-04-10T21:52:47.330Z,6.59
2023-04-10T21:55:59.667Z,6.51
2023-04-10T21:59:12.052Z,6.55
2023-04-10T22:02:24.282Z,6.49
2023-04-10T22:05:37.119Z,6.49
2023-04-10T22:08:49.290Z,6.55
2023-04-10T22:12:01.601Z,6.58
2023-04-10T22:15:16.488Z,6.62
2023-04-10T22:18:28.669Z,6.59
2023-04-10T22:21:40.982Z,6.63
2023-04-10T22:24:53.088Z,6.60
2023-04-10T22:28:05.368Z,6.62
2023-04-10T22:31:23.504Z,6.60
2023-04-10T22:34:36.068Z,6.55
2023-04-10T22:37:48.623Z,6.52
2023-04-10T22:41:01.343Z,6.52
2023-04-10T22:44:13.625Z,6.54
2023-04-10T22:47:27.341Z,6.49
2023-04-10T22:50:40.358Z,6.45
2023-04-10T22:53:52.328Z,6.44
2023-04-10T22:57:06.223Z,6.40
2023-04-10T23:00:20.819Z,6.43
2023-04-10T23:03:33.061Z,6.44
2023-04-10T23:06:45.374Z,6.36
2023-04-10T23:09:57.501Z,6.34
2023-04-10T23:13:09.551Z,6.32
2023-04-10T23:16:21.879Z,6.38
2023-04-10T23:19:34.126Z,6.45
2023-04-10T23:22:46.231Z,6.48
2023-04-10T23:26:06.619Z,6.50
2023-04-10T23:29:18.803Z,6.51
2023-04-10T23:32:30.983Z,6.53
2023-04-10T23:35:43.321Z,6.53
2023-04-10T23:38:55.681Z,6.55
2023-04-10T23:42:08.884Z,6.57
2023-04-10T23:45:21.086Z,6.56
2023-04-10T23:48:33.192Z,6.59
2023-04-10T23:51:45.356Z,6.61
2023-04-10T23:54:57.540Z,6.64
2023-04-10T23:58:10.042Z,6.66
